sensor_id;sensor_type;location;lat;lon;timestamp;P1;durP1;ratioP1;P2;durP2;ratioP2
1682;SDS011;13252;53.596;10.060;2022-09-09T00:01:41;92.43;;;48.97;;
1682;SDS011;13252;53.596;10.060;2022-09-09T00:04:17;88.43;;;50.57;;
1682;SDS011;13252;53.596;10.060;2022-09-09T00:06:55;92.33;;;52.10;;
1682;SDS011;13252;53.596;10.060;2022-09-09T00:09:28;98.13;;;51.67;;
1682;SDS011;13252;53.596;10.060;2022-09-09T00:11:58;93.10;;;53.17;;
1682;SDS011;13252;53.596;10.060;2022-09-09T00:14:33;97.77;;;52.47;;
1682;SDS011;13252;53.596;10.060;2022-09-09T00:17:06;118.10;;;52.90;;
1682;SDS011;13252;53.596;10.060;2022-09-09T00:19:38;114.20;;;53.93;;
1682;SDS011;13252;53.596;10.060;2022-09-09T00:22:14;105.30;;;54.17;;
1682;SDS011;13252;53.596;10.060;2022-09-09T00:24:44;105.00;;;54.97;;
1682;SDS011;13252;53.596;10.060;2022-09-09T00:27:16;174.67;;;55.77;;
1682;SDS011;13252;53.596;10.060;2022-09-09T00:29:47;119.23;;;56.60;;
1682;SDS011;13252;53.596;10.060;2022-09-09T00:32:21;112.23;;;55.20;;
1682;SDS011;13252;53.596;10.060;2022-09-09T00:34:50;128.70;;;55.03;;
1682;SDS011;13252;53.596;10.060;2022-09-09T00:37:22;113.20;;;55.40;;
1682;SDS011;13252;53.596;10.060;2022-09-09T00:39:53;141.63;;;55.00;;
1682;SDS011;13252;53.596;10.060;2022-09-09T00:42:23;129.67;;;53.07;;
1682;SDS011;13252;53.596;10.060;2022-09-09T00:44:56;109.30;;;52.50;;
1682;SDS011;13252;53.596;10.060;2022-09-09T00:47:35;119.97;;;52.63;;
1682;SDS011;13252;53.596;10.060;2022-09-09T00:50:10;103.17;;;50.90;;
1682;SDS011;13252;53.596;10.060;2022-09-09T00:52:44;142.57;;;49.40;;
1682;SDS011;13252;53.596;10.060;2022-09-09T00:55:15;119.37;;;45.57;;
1682;SDS011;13252;53.596;10.060;2022-09-09T00:57:45;125.87;;;46.43;;
1682;SDS011;13252;53.596;10.060;2022-09-09T01:00:18;95.63;;;46.30;;
1682;SDS011;13252;53.596;10.060;2022-09-09T01:03:02;113.50;;;45.67;;
1682;SDS011;13252;53.596;10.060;2022-09-09T01:05:39;108.83;;;46.13;;
1682;SDS011;13252;53.596;10.060;2022-09-09T01:08:13;94.83;;;43.17;;
1682;SDS011;13252;53.596;10.060;2022-09-09T01:10:49;90.03;;;43.23;;
1682;SDS011;13252;53.596;10.060;2022-09-09T01:13:24;91.20;;;42.33;;
1682;SDS011;13252;53.596;10.060;2022-09-09T01:15:53;81.13;;;40.60;;
1682;SDS011;13252;53.596;10.060;2022-09-09T01:18:30;73.50;;;37.60;;
1682;SDS011;13252;53.596;10.060;2022-09-09T01:21:04;92.93;;;37.20;;
1682;SDS011;13252;53.596;10.060;2022-09-09T01:23:38;63.03;;;38.60;;
1682;SDS011;13252;53.596;10.060;2022-09-09T01:26:21;71.30;;;35.90;;
1682;SDS011;13252;53.596;10.060;2022-09-09T01:28:55;63.30;;;35.43;;
1682;SDS011;13252;53.596;10.060;2022-09-09T01:31:31;67.80;;;35.90;;
1682;SDS011;13252;53.596;10.060;2022-09-09T01:34:00;61.73;;;35.67;;
1682;SDS011;13252;53.596;10.060;2022-09-09T01:36:31;59.63;;;35.00;;
1682;SDS011;13252;53.596;10.060;2022-09-09T01:39:01;78.27;;;36.93;;
1682;SDS011;13252;53.596;10.060;2022-09-09T01:41:32;72.73;;;36.90;;
1682;SDS011;13252;53.596;10.060;2022-09-09T01:44:05;71.77;;;35.40;;
1682;SDS011;13252;53.596;10.060;2022-09-09T01:46:37;72.80;;;35.87;;
1682;SDS011;13252;53.596;10.060;2022-09-09T01:49:11;62.30;;;34.77;;
1682;SDS011;13252;53.596;10.060;2022-09-09T01:51:39;54.27;;;35.90;;
1682;SDS011;13252;53.596;10.060;2022-09-09T01:54:11;70.60;;;34.27;;
1682;SDS011;13252;53.596;10.060;2022-09-09T01:56:47;91.50;;;36.97;;
1682;SDS011;13252;53.596;10.060;2022-09-09T01:59:24;79.27;;;35.73;;
1682;SDS011;13252;53.596;10.060;2022-09-09T02:02:03;57.43;;;34.50;;
1682;SDS011;13252;53.596;10.060;2022-09-09T02:04:42;69.13;;;36.57;;
1682;SDS011;13252;53.596;10.060;2022-09-09T02:07:20;91.23;;;34.87;;
1682;SDS011;13252;53.596;10.060;2022-09-09T02:09:57;68.63;;;34.40;;
1682;SDS011;13252;53.596;10.060;2022-09-09T02:12:28;72.73;;;34.47;;
1682;SDS011;13252;53.596;10.060;2022-09-09T02:15:02;65.03;;;36.20;;
1682;SDS011;13252;53.596;10.060;2022-09-09T02:17:42;70.10;;;36.67;;
1682;SDS011;13252;53.596;10.060;2022-09-09T02:20:15;81.90;;;34.90;;
1682;SDS011;13252;53.596;10.060;2022-09-09T02:22:50;102.30;;;37.87;;
1682;SDS011;13252;53.596;10.060;2022-09-09T02:25:21;64.67;;;37.20;;
1682;SDS011;13252;53.596;10.060;2022-09-09T02:27:53;98.30;;;53.07;;
1682;SDS011;13252;53.596;10.060;2022-09-09T02:30:21;76.03;;;35.63;;
1682;SDS011;13252;53.596;10.060;2022-09-09T02:32:54;64.50;;;38.83;;
1682;SDS011;13252;53.596;10.060;2022-09-09T02:35:30;67.37;;;36.10;;
1682;SDS011;13252;53.596;10.060;2022-09-09T02:38:01;60.97;;;36.50;;
1682;SDS011;13252;53.596;10.060;2022-09-09T02:40:31;64.27;;;35.80;;
1682;SDS011;13252;53.596;10.060;2022-09-09T02:43:03;55.10;;;33.50;;
1682;SDS011;13252;53.596;10.060;2022-09-09T02:45:31;63.27;;;36.60;;
1682;SDS011;13252;53.596;10.060;2022-09-09T02:48:06;56.20;;;34.17;;
1682;SDS011;13252;53.596;10.060;2022-09-09T02:50:43;57.83;;;35.00;;
1682;SDS011;13252;53.596;10.060;2022-09-09T02:53:17;60.80;;;34.80;;
1682;SDS011;13252;53.596;10.060;2022-09-09T02:55:47;59.40;;;36.03;;
1682;SDS011;13252;53.596;10.060;2022-09-09T02:58:20;59.73;;;35.33;;
1682;SDS011;13252;53.596;10.060;2022-09-09T03:00:55;58.80;;;35.80;;
1682;SDS011;13252;53.596;10.060;2022-09-09T03:03:25;50.53;;;34.10;;
1682;SDS011;13252;53.596;10.060;2022-09-09T03:05:54;68.47;;;34.90;;
1682;SDS011;13252;53.596;10.060;2022-09-09T03:08:25;50.43;;;33.70;;
1682;SDS011;13252;53.596;10.060;2022-09-09T03:10:55;49.87;;;31.57;;
1682;SDS011;13252;53.596;10.060;2022-09-09T03:13:29;59.90;;;32.30;;
1682;SDS011;13252;53.596;10.060;2022-09-09T03:15:56;46.60;;;32.07;;
1682;SDS011;13252;53.596;10.060;2022-09-09T03:18:25;43.07;;;29.87;;
1682;SDS011;13252;53.596;10.060;2022-09-09T03:20:56;57.37;;;30.80;;
1682;SDS011;13252;53.596;10.060;2022-09-09T03:23:27;45.03;;;30.43;;
1682;SDS011;13252;53.596;10.060;2022-09-09T03:25:58;47.03;;;30.23;;
1682;SDS011;13252;53.596;10.060;2022-09-09T03:28:37;49.97;;;30.30;;
1682;SDS011;13252;53.596;10.060;2022-09-09T03:31:06;54.17;;;30.70;;
1682;SDS011;13252;53.596;10.060;2022-09-09T03:33:39;45.70;;;29.93;;
1682;SDS011;13252;53.596;10.060;2022-09-09T03:36:10;43.60;;;28.33;;
1682;SDS011;13252;53.596;10.060;2022-09-09T03:38:37;45.37;;;29.70;;
1682;SDS011;13252;53.596;10.060;2022-09-09T03:41:06;42.13;;;28.00;;
1682;SDS011;13252;53.596;10.060;2022-09-09T03:43:34;39.03;;;28.27;;
1682;SDS011;13252;53.596;10.060;2022-09-09T03:46:05;40.10;;;28.20;;
1682;SDS011;13252;53.596;10.060;2022-09-09T03:48:34;48.13;;;30.20;;
1682;SDS011;13252;53.596;10.060;2022-09-09T03:51:03;46.10;;;30.53;;
1682;SDS011;13252;53.596;10.060;2022-09-09T03:53:32;70.33;;;30.47;;
1682;SDS011;13252;53.596;10.060;2022-09-09T03:56:01;56.03;;;29.70;;
1682;SDS011;13252;53.596;10.060;2022-09-09T03:58:30;50.00;;;30.93;;
1682;SDS011;13252;53.596;10.060;2022-09-09T04:01:03;63.93;;;29.87;;
1682;SDS011;13252;53.596;10.060;2022-09-09T04:03:35;64.87;;;30.17;;
1682;SDS011;13252;53.596;10.060;2022-09-09T04:06:03;54.10;;;28.03;;
1682;SDS011;13252;53.596;10.060;2022-09-09T04:08:33;48.57;;;27.93;;
1682;SDS011;13252;53.596;10.060;2022-09-09T04:11:02;50.60;;;27.90;;
1682;SDS011;13252;53.596;10.060;2022-09-09T04:13:33;42.47;;;27.50;;
1682;SDS011;13252;53.596;10.060;2022-09-09T04:16:01;42.13;;;29.07;;
1682;SDS011;13252;53.596;10.060;2022-09-09T04:18:33;41.37;;;27.27;;
1682;SDS011;13252;53.596;10.060;2022-09-09T04:21:02;37.40;;;27.20;;
1682;SDS011;13252;53.596;10.060;2022-09-09T04:23:32;39.93;;;28.43;;
1682;SDS011;13252;53.596;10.060;2022-09-09T04:26:00;41.20;;;29.13;;
1682;SDS011;13252;53.596;10.060;2022-09-09T04:28:32;33.67;;;27.30;;
1682;SDS011;13252;53.596;10.060;2022-09-09T04:31:03;37.30;;;26.97;;
1682;SDS011;13252;53.596;10.060;2022-09-09T04:33:34;34.27;;;28.10;;
1682;SDS011;13252;53.596;10.060;2022-09-09T04:36:06;34.03;;;25.20;;
1682;SDS011;13252;53.596;10.060;2022-09-09T04:38:34;41.73;;;27.77;;
1682;SDS011;13252;53.596;10.060;2022-09-09T04:41:03;32.33;;;25.93;;
1682;SDS011;13252;53.596;10.060;2022-09-09T04:43:33;30.20;;;24.90;;
1682;SDS011;13252;53.596;10.060;2022-09-09T04:46:03;32.73;;;25.80;;
1682;SDS011;13252;53.596;10.060;2022-09-09T04:48:31;35.90;;;24.83;;
1682;SDS011;13252;53.596;10.060;2022-09-09T04:51:02;33.67;;;27.03;;
1682;SDS011;13252;53.596;10.060;2022-09-09T04:53:32;31.80;;;23.90;;
1682;SDS011;13252;53.596;10.060;2022-09-09T04:56:02;33.30;;;25.53;;
1682;SDS011;13252;53.596;10.060;2022-09-09T04:58:34;33.30;;;25.77;;
1682;SDS011;13252;53.596;10.060;2022-09-09T05:01:04;34.87;;;27.47;;
1682;SDS011;13252;53.596;10.060;2022-09-09T05:03:34;32.97;;;25.43;;
1682;SDS011;13252;53.596;10.060;2022-09-09T05:06:06;31.47;;;24.77;;
1682;SDS011;13252;53.596;10.060;2022-09-09T05:08:36;29.73;;;22.77;;
1682;SDS011;13252;53.596;10.060;2022-09-09T05:11:03;28.80;;;23.60;;
1682;SDS011;13252;53.596;10.060;2022-09-09T05:13:31;28.00;;;23.47;;
1682;SDS011;13252;53.596;10.060;2022-09-09T05:16:03;31.80;;;23.13;;
1682;SDS011;13252;53.596;10.060;2022-09-09T05:18:32;26.60;;;21.83;;
1682;SDS011;13252;53.596;10.060;2022-09-09T05:21:00;30.80;;;23.90;;
1682;SDS011;13252;53.596;10.060;2022-09-09T05:23:30;25.30;;;21.23;;
1682;SDS011;13252;53.596;10.060;2022-09-09T05:25:58;30.30;;;23.50;;
1682;SDS011;13252;53.596;10.060;2022-09-09T05:28:27;26.93;;;20.97;;
1682;SDS011;13252;53.596;10.060;2022-09-09T05:30:56;29.70;;;23.50;;
1682;SDS011;13252;53.596;10.060;2022-09-09T05:33:28;30.30;;;19.97;;
1682;SDS011;13252;53.596;10.060;2022-09-09T05:35:57;26.53;;;20.97;;
1682;SDS011;13252;53.596;10.060;2022-09-09T05:38:26;25.10;;;21.97;;
1682;SDS011;13252;53.596;10.060;2022-09-09T05:40:57;27.40;;;21.20;;
1682;SDS011;13252;53.596;10.060;2022-09-09T05:43:25;27.80;;;23.00;;
1682;SDS011;13252;53.596;10.060;2022-09-09T05:46:01;32.70;;;23.27;;
1682;SDS011;13252;53.596;10.060;2022-09-09T05:48:31;32.87;;;22.20;;
1682;SDS011;13252;53.596;10.060;2022-09-09T05:51:00;26.67;;;21.87;;
1682;SDS011;13252;53.596;10.060;2022-09-09T05:53:29;27.30;;;22.47;;
1682;SDS011;13252;53.596;10.060;2022-09-09T05:56:02;26.50;;;22.77;;
1682;SDS011;13252;53.596;10.060;2022-09-09T05:58:33;23.87;;;19.10;;
1682;SDS011;13252;53.596;10.060;2022-09-09T06:01:05;22.10;;;19.90;;
1682;SDS011;13252;53.596;10.060;2022-09-09T06:03:34;28.87;;;20.93;;
1682;SDS011;13252;53.596;10.060;2022-09-09T06:06:02;25.87;;;20.63;;
1682;SDS011;13252;53.596;10.060;2022-09-09T06:08:32;21.67;;;19.33;;
1682;SDS011;13252;53.596;10.060;2022-09-09T06:11:02;23.03;;;19.63;;
1682;SDS011;13252;53.596;10.060;2022-09-09T06:13:31;23.03;;;18.60;;
1682;SDS011;13252;53.596;10.060;2022-09-09T06:15:59;23.10;;;18.80;;
1682;SDS011;13252;53.596;10.060;2022-09-09T06:18:27;19.97;;;17.87;;
1682;SDS011;13252;53.596;10.060;2022-09-09T06:20:56;22.77;;;18.30;;
1682;SDS011;13252;53.596;10.060;2022-09-09T06:23:24;17.67;;;15.73;;
1682;SDS011;13252;53.596;10.060;2022-09-09T06:25:59;20.57;;;15.90;;
1682;SDS011;13252;53.596;10.060;2022-09-09T06:28:33;17.27;;;15.47;;
1682;SDS011;13252;53.596;10.060;2022-09-09T06:31:01;16.43;;;13.83;;
1682;SDS011;13252;53.596;10.060;2022-09-09T06:33:30;16.43;;;13.77;;
1682;SDS011;13252;53.596;10.060;2022-09-09T06:36:01;18.53;;;13.10;;
1682;SDS011;13252;53.596;10.060;2022-09-09T06:38:31;17.73;;;14.13;;
1682;SDS011;13252;53.596;10.060;2022-09-09T06:40:59;18.90;;;13.03;;
1682;SDS011;13252;53.596;10.060;2022-09-09T06:43:29;13.87;;;12.27;;
1682;SDS011;13252;53.596;10.060;2022-09-09T06:45:59;20.23;;;14.30;;
1682;SDS011;13252;53.596;10.060;2022-09-09T06:48:28;16.70;;;14.60;;
1682;SDS011;13252;53.596;10.060;2022-09-09T06:51:03;14.60;;;13.10;;
1682;SDS011;13252;53.596;10.060;2022-09-09T06:53:31;14.40;;;12.60;;
1682;SDS011;13252;53.596;10.060;2022-09-09T06:56:00;14.00;;;11.93;;
1682;SDS011;13252;53.596;10.060;2022-09-09T06:58:31;15.37;;;11.67;;
1682;SDS011;13252;53.596;10.060;2022-09-09T07:01:03;18.07;;;12.33;;
1682;SDS011;13252;53.596;10.060;2022-09-09T07:03:32;19.40;;;12.50;;
1682;SDS011;13252;53.596;10.060;2022-09-09T07:06:01;14.10;;;10.80;;
1682;SDS011;13252;53.596;10.060;2022-09-09T07:08:30;15.80;;;12.03;;
1682;SDS011;13252;53.596;10.060;2022-09-09T07:11:01;13.60;;;12.00;;
1682;SDS011;13252;53.596;10.060;2022-09-09T07:13:38;15.83;;;12.60;;
1682;SDS011;13252;53.596;10.060;2022-09-09T07:16:07;20.73;;;12.40;;
1682;SDS011;13252;53.596;10.060;2022-09-09T07:18:37;15.43;;;11.10;;
1682;SDS011;13252;53.596;10.060;2022-09-09T07:21:05;19.13;;;10.60;;
1682;SDS011;13252;53.596;10.060;2022-09-09T07:23:34;13.37;;;9.97;;
1682;SDS011;13252;53.596;10.060;2022-09-09T07:26:06;14.17;;;10.57;;
1682;SDS011;13252;53.596;10.060;2022-09-09T07:28:36;9.50;;;8.53;;
1682;SDS011;13252;53.596;10.060;2022-09-09T07:31:05;12.60;;;9.07;;
1682;SDS011;13252;53.596;10.060;2022-09-09T07:33:34;17.83;;;10.90;;
1682;SDS011;13252;53.596;10.060;2022-09-09T07:36:03;11.60;;;9.77;;
1682;SDS011;13252;53.596;10.060;2022-09-09T07:38:37;10.10;;;8.77;;
1682;SDS011;13252;53.596;10.060;2022-09-09T07:41:05;13.60;;;8.90;;
1682;SDS011;13252;53.596;10.060;2022-09-09T07:43:35;9.33;;;8.30;;
1682;SDS011;13252;53.596;10.060;2022-09-09T07:46:03;11.50;;;9.13;;
1682;SDS011;13252;53.596;10.060;2022-09-09T07:48:33;11.83;;;7.50;;
1682;SDS011;13252;53.596;10.060;2022-09-09T07:51:08;8.70;;;7.77;;
1682;SDS011;13252;53.596;10.060;2022-09-09T07:53:38;9.83;;;7.40;;
1682;SDS011;13252;53.596;10.060;2022-09-09T07:56:06;9.53;;;7.57;;
1682;SDS011;13252;53.596;10.060;2022-09-09T07:58:35;10.93;;;5.93;;
1682;SDS011;13252;53.596;10.060;2022-09-09T08:01:08;12.40;;;6.60;;
1682;SDS011;13252;53.596;10.060;2022-09-09T08:03:37;10.60;;;6.83;;
1682;SDS011;13252;53.596;10.060;2022-09-09T08:06:06;16.73;;;7.47;;
1682;SDS011;13252;53.596;10.060;2022-09-09T08:08:35;14.30;;;5.87;;
1682;SDS011;13252;53.596;10.060;2022-09-09T08:11:05;10.70;;;5.77;;
1682;SDS011;13252;53.596;10.060;2022-09-09T08:13:35;7.10;;;6.23;;
1682;SDS011;13252;53.596;10.060;2022-09-09T08:16:05;9.97;;;5.70;;
1682;SDS011;13252;53.596;10.060;2022-09-09T08:18:34;8.20;;;5.93;;
1682;SDS011;13252;53.596;10.060;2022-09-09T08:21:10;7.40;;;5.60;;
1682;SDS011;13252;53.596;10.060;2022-09-09T08:23:40;8.40;;;6.70;;
1682;SDS011;13252;53.596;10.060;2022-09-09T08:26:10;8.73;;;6.20;;
1682;SDS011;13252;53.596;10.060;2022-09-09T08:28:40;10.23;;;6.13;;
1682;SDS011;13252;53.596;10.060;2022-09-09T08:31:10;8.37;;;6.30;;
1682;SDS011;13252;53.596;10.060;2022-09-09T08:33:41;9.83;;;6.40;;
1682;SDS011;13252;53.596;10.060;2022-09-09T08:36:13;7.60;;;5.13;;
1682;SDS011;13252;53.596;10.060;2022-09-09T08:38:42;10.60;;;6.00;;
1682;SDS011;13252;53.596;10.060;2022-09-09T08:41:17;12.73;;;6.30;;
1682;SDS011;13252;53.596;10.060;2022-09-09T08:44:07;10.80;;;5.70;;
1682;SDS011;13252;53.596;10.060;2022-09-09T08:46:41;11.23;;;5.90;;
1682;SDS011;13252;53.596;10.060;2022-09-09T08:49:16;8.63;;;5.53;;
1682;SDS011;13252;53.596;10.060;2022-09-09T08:51:54;10.13;;;6.30;;
1682;SDS011;13252;53.596;10.060;2022-09-09T08:54:23;9.20;;;6.10;;
1682;SDS011;13252;53.596;10.060;2022-09-09T08:57:14;9.27;;;5.80;;
1682;SDS011;13252;53.596;10.060;2022-09-09T08:59:45;8.57;;;5.80;;
1682;SDS011;13252;53.596;10.060;2022-09-09T09:02:14;10.10;;;7.03;;
1682;SDS011;13252;53.596;10.060;2022-09-09T09:04:52;11.10;;;7.07;;
1682;SDS011;13252;53.596;10.060;2022-09-09T09:07:31;9.67;;;6.30;;
1682;SDS011;13252;53.596;10.060;2022-09-09T09:10:09;11.70;;;5.50;;
1682;SDS011;13252;53.596;10.060;2022-09-09T09:13:01;10.10;;;5.60;;
1682;SDS011;13252;53.596;10.060;2022-09-09T09:15:31;13.17;;;5.00;;
1682;SDS011;13252;53.596;10.060;2022-09-09T09:18:03;9.27;;;5.33;;
1682;SDS011;13252;53.596;10.060;2022-09-09T09:20:34;6.17;;;4.30;;
1682;SDS011;13252;53.596;10.060;2022-09-09T09:23:15;6.57;;;5.17;;
1682;SDS011;13252;53.596;10.060;2022-09-09T09:25:49;7.10;;;4.20;;
1682;SDS011;13252;53.596;10.060;2022-09-09T09:28:18;8.77;;;4.73;;
1682;SDS011;13252;53.596;10.060;2022-09-09T09:30:55;19.40;;;5.33;;
1682;SDS011;13252;53.596;10.060;2022-09-09T09:33:26;9.83;;;3.90;;
1682;SDS011;13252;53.596;10.060;2022-09-09T09:35:56;6.77;;;4.30;;
1682;SDS011;13252;53.596;10.060;2022-09-09T09:38:29;8.43;;;3.50;;
1682;SDS011;13252;53.596;10.060;2022-09-09T09:41:16;5.80;;;3.40;;
1682;SDS011;13252;53.596;10.060;2022-09-09T09:43:52;7.37;;;3.20;;
1682;SDS011;13252;53.596;10.060;2022-09-09T09:46:23;9.80;;;4.00;;
1682;SDS011;13252;53.596;10.060;2022-09-09T09:48:56;6.67;;;3.47;;
1682;SDS011;13252;53.596;10.060;2022-09-09T09:51:25;5.70;;;3.17;;
1682;SDS011;13252;53.596;10.060;2022-09-09T09:53:55;8.57;;;3.10;;
1682;SDS011;13252;53.596;10.060;2022-09-09T09:56:37;5.97;;;2.20;;
1682;SDS011;13252;53.596;10.060;2022-09-09T09:59:18;5.43;;;2.37;;
1682;SDS011;13252;53.596;10.060;2022-09-09T10:02:11;6.43;;;3.13;;
1682;SDS011;13252;53.596;10.060;2022-09-09T10:04:43;10.50;;;3.13;;
1682;SDS011;13252;53.596;10.060;2022-09-09T10:07:17;5.70;;;2.57;;
1682;SDS011;13252;53.596;10.060;2022-09-09T10:09:47;10.70;;;3.20;;
1682;SDS011;13252;53.596;10.060;2022-09-09T10:12:20;4.93;;;2.63;;
1682;SDS011;13252;53.596;10.060;2022-09-09T10:14:56;6.93;;;2.90;;
1682;SDS011;13252;53.596;10.060;2022-09-09T10:17:30;5.83;;;2.50;;
1682;SDS011;13252;53.596;10.060;2022-09-09T10:20:15;6.87;;;2.20;;
1682;SDS011;13252;53.596;10.060;2022-09-09T10:22:49;10.83;;;3.00;;
1682;SDS011;13252;53.596;10.060;2022-09-09T10:25:21;8.17;;;2.90;;
1682;SDS011;13252;53.596;10.060;2022-09-09T10:28:05;6.43;;;2.30;;
1682;SDS011;13252;53.596;10.060;2022-09-09T10:30:46;8.67;;;2.50;;
1682;SDS011;13252;53.596;10.060;2022-09-09T10:33:20;6.93;;;2.83;;
1682;SDS011;13252;53.596;10.060;2022-09-09T10:35:51;6.17;;;2.20;;
1682;SDS011;13252;53.596;10.060;2022-09-09T10:38:22;6.80;;;1.77;;
1682;SDS011;13252;53.596;10.060;2022-09-09T10:41:07;6.33;;;1.80;;
1682;SDS011;13252;53.596;10.060;2022-09-09T10:43:54;8.20;;;2.17;;
1682;SDS011;13252;53.596;10.060;2022-09-09T10:46:40;5.80;;;1.90;;
1682;SDS011;13252;53.596;10.060;2022-09-09T10:49:18;6.93;;;2.20;;
1682;SDS011;13252;53.596;10.060;2022-09-09T10:51:54;8.33;;;1.67;;
1682;SDS011;13252;53.596;10.060;2022-09-09T10:54:31;8.10;;;4.10;;
1682;SDS011;13252;53.596;10.060;2022-09-09T10:57:08;3.70;;;1.40;;
1682;SDS011;13252;53.596;10.060;2022-09-09T10:59:40;5.37;;;2.00;;
1682;SDS011;13252;53.596;10.060;2022-09-09T11:02:12;14.57;;;7.63;;
1682;SDS011;13252;53.596;10.060;2022-09-09T11:04:47;5.10;;;1.90;;
1682;SDS011;13252;53.596;10.060;2022-09-09T11:07:19;4.63;;;1.83;;
1682;SDS011;13252;53.596;10.060;2022-09-09T11:09:54;4.50;;;1.40;;
1682;SDS011;13252;53.596;10.060;2022-09-09T11:12:28;5.77;;;1.77;;
1682;SDS011;13252;53.596;10.060;2022-09-09T11:14:58;4.10;;;1.63;;
1682;SDS011;13252;53.596;10.060;2022-09-09T11:17:30;3.27;;;1.20;;
1682;SDS011;13252;53.596;10.060;2022-09-09T11:20:02;7.83;;;1.57;;
1682;SDS011;13252;53.596;10.060;2022-09-09T11:22:33;3.60;;;1.30;;
1682;SDS011;13252;53.596;10.060;2022-09-09T11:25:04;6.40;;;2.40;;
1682;SDS011;13252;53.596;10.060;2022-09-09T11:27:35;6.37;;;1.63;;
1682;SDS011;13252;53.596;10.060;2022-09-09T11:30:10;7.60;;;2.53;;
1682;SDS011;13252;53.596;10.060;2022-09-09T11:36:28;4.20;;;2.10;;
1682;SDS011;13252;53.596;10.060;2022-09-09T11:39:10;5.77;;;1.93;;
1682;SDS011;13252;53.596;10.060;2022-09-09T11:41:50;4.27;;;1.70;;
1682;SDS011;13252;53.596;10.060;2022-09-09T11:44:19;5.53;;;1.47;;
1682;SDS011;13252;53.596;10.060;2022-09-09T11:46:52;4.50;;;2.00;;
1682;SDS011;13252;53.596;10.060;2022-09-09T11:49:26;4.30;;;1.70;;
1682;SDS011;13252;53.596;10.060;2022-09-09T11:51:54;4.60;;;1.70;;
1682;SDS011;13252;53.596;10.060;2022-09-09T11:54:27;4.53;;;1.70;;
1682;SDS011;13252;53.596;10.060;2022-09-09T11:56:56;4.70;;;1.60;;
1682;SDS011;13252;53.596;10.060;2022-09-09T11:59:26;5.87;;;1.70;;
1682;SDS011;13252;53.596;10.060;2022-09-09T12:01:55;6.40;;;2.03;;
1682;SDS011;13252;53.596;10.060;2022-09-09T12:04:31;6.57;;;1.60;;
1682;SDS011;13252;53.596;10.060;2022-09-09T12:07:02;5.70;;;2.13;;
1682;SDS011;13252;53.596;10.060;2022-09-09T12:09:35;5.80;;;2.00;;
1682;SDS011;13252;53.596;10.060;2022-09-09T12:12:22;2.77;;;1.43;;
1682;SDS011;13252;53.596;10.060;2022-09-09T12:14:56;5.87;;;2.20;;
1682;SDS011;13252;53.596;10.060;2022-09-09T12:17:28;4.60;;;1.90;;
1682;SDS011;13252;53.596;10.060;2022-09-09T12:20:03;9.13;;;2.37;;
1682;SDS011;13252;53.596;10.060;2022-09-09T12:22:37;8.03;;;1.70;;
1682;SDS011;13252;53.596;10.060;2022-09-09T12:25:16;10.13;;;1.93;;
1682;SDS011;13252;53.596;10.060;2022-09-09T12:27:52;5.20;;;1.37;;
1682;SDS011;13252;53.596;10.060;2022-09-09T12:30:31;6.13;;;1.70;;
1682;SDS011;13252;53.596;10.060;2022-09-09T12:33:06;5.43;;;1.88;;
1682;SDS011;13252;53.596;10.060;2022-09-09T12:35:37;6.70;;;2.23;;
1682;SDS011;13252;53.596;10.060;2022-09-09T12:38:05;6.40;;;1.80;;
1682;SDS011;13252;53.596;10.060;2022-09-09T12:40:37;5.93;;;2.27;;
1682;SDS011;13252;53.596;10.060;2022-09-09T12:43:16;5.43;;;1.83;;
1682;SDS011;13252;53.596;10.060;2022-09-09T12:45:46;6.63;;;1.87;;
1682;SDS011;13252;53.596;10.060;2022-09-09T12:48:16;5.87;;;1.90;;
1682;SDS011;13252;53.596;10.060;2022-09-09T12:50:46;5.53;;;2.00;;
1682;SDS011;13252;53.596;10.060;2022-09-09T12:53:18;5.87;;;2.10;;
1682;SDS011;13252;53.596;10.060;2022-09-09T12:55:52;4.70;;;2.00;;
1682;SDS011;13252;53.596;10.060;2022-09-09T12:58:21;5.13;;;2.37;;
1682;SDS011;13252;53.596;10.060;2022-09-09T13:00:51;4.60;;;2.33;;
1682;SDS011;13252;53.596;10.060;2022-09-09T13:03:22;4.97;;;2.10;;
1682;SDS011;13252;53.596;10.060;2022-09-09T13:05:51;6.00;;;1.77;;
1682;SDS011;13252;53.596;10.060;2022-09-09T13:08:19;7.03;;;2.53;;
1682;SDS011;13252;53.596;10.060;2022-09-09T13:10:48;10.43;;;2.00;;
1682;SDS011;13252;53.596;10.060;2022-09-09T13:13:27;7.90;;;2.70;;
1682;SDS011;13252;53.596;10.060;2022-09-09T13:15:59;3.73;;;2.30;;
1682;SDS011;13252;53.596;10.060;2022-09-09T13:18:29;5.60;;;1.77;;
1682;SDS011;13252;53.596;10.060;2022-09-09T13:20:57;6.20;;;2.10;;
1682;SDS011;13252;53.596;10.060;2022-09-09T13:23:26;9.23;;;3.13;;
1682;SDS011;13252;53.596;10.060;2022-09-09T13:25:56;6.13;;;2.33;;
1682;SDS011;13252;53.596;10.060;2022-09-09T13:28:26;3.83;;;2.27;;
1682;SDS011;13252;53.596;10.060;2022-09-09T13:31:01;4.33;;;2.33;;
1682;SDS011;13252;53.596;10.060;2022-09-09T13:33:32;6.10;;;2.70;;
1682;SDS011;13252;53.596;10.060;2022-09-09T13:36:02;9.43;;;2.53;;
1682;SDS011;13252;53.596;10.060;2022-09-09T13:38:32;5.90;;;2.30;;
1682;SDS011;13252;53.596;10.060;2022-09-09T13:41:01;5.40;;;2.30;;
1682;SDS011;13252;53.596;10.060;2022-09-09T13:43:31;6.17;;;2.73;;
1682;SDS011;13252;53.596;10.060;2022-09-09T13:46:03;10.73;;;2.63;;
1682;SDS011;13252;53.596;10.060;2022-09-09T13:48:32;9.40;;;3.50;;
1682;SDS011;13252;53.596;10.060;2022-09-09T13:51:01;11.17;;;3.70;;
1682;SDS011;13252;53.596;10.060;2022-09-09T13:53:31;12.13;;;4.53;;
1682;SDS011;13252;53.596;10.060;2022-09-09T13:55:59;7.33;;;4.23;;
1682;SDS011;13252;53.596;10.060;2022-09-09T13:58:27;6.77;;;3.73;;
1682;SDS011;13252;53.596;10.060;2022-09-09T14:00:55;12.73;;;4.20;;
1682;SDS011;13252;53.596;10.060;2022-09-09T14:03:24;10.93;;;3.80;;
1682;SDS011;13252;53.596;10.060;2022-09-09T14:05:52;11.83;;;3.93;;
1682;SDS011;13252;53.596;10.060;2022-09-09T14:08:22;10.83;;;3.93;;
1682;SDS011;13252;53.596;10.060;2022-09-09T14:10:51;9.73;;;4.73;;
1682;SDS011;13252;53.596;10.060;2022-09-09T14:13:24;8.30;;;4.20;;
1682;SDS011;13252;53.596;10.060;2022-09-09T14:15:52;20.17;;;9.17;;
1682;SDS011;13252;53.596;10.060;2022-09-09T14:18:19;6.40;;;4.10;;
1682;SDS011;13252;53.596;10.060;2022-09-09T14:20:50;7.97;;;5.50;;
1682;SDS011;13252;53.596;10.060;2022-09-09T14:23:17;24.77;;;10.67;;
1682;SDS011;13252;53.596;10.060;2022-09-09T14:25:45;18.37;;;13.97;;
1682;SDS011;13252;53.596;10.060;2022-09-09T14:28:13;12.27;;;6.50;;
1682;SDS011;13252;53.596;10.060;2022-09-09T14:30:41;6.70;;;4.77;;
1682;SDS011;13252;53.596;10.060;2022-09-09T14:33:11;9.70;;;5.00;;
1682;SDS011;13252;53.596;10.060;2022-09-09T14:35:40;7.70;;;5.53;;
1682;SDS011;13252;53.596;10.060;2022-09-09T14:38:09;10.50;;;5.13;;
1682;SDS011;13252;53.596;10.060;2022-09-09T14:40:44;12.17;;;5.60;;
1682;SDS011;13252;53.596;10.060;2022-09-09T14:43:13;11.70;;;5.10;;
1682;SDS011;13252;53.596;10.060;2022-09-09T14:45:41;7.13;;;4.53;;
1682;SDS011;13252;53.596;10.060;2022-09-09T14:48:09;10.63;;;4.93;;
1682;SDS011;13252;53.596;10.060;2022-09-09T14:50:37;7.80;;;4.43;;
1682;SDS011;13252;53.596;10.060;2022-09-09T14:53:06;9.57;;;4.40;;
1682;SDS011;13252;53.596;10.060;2022-09-09T14:55:36;10.27;;;5.10;;
1682;SDS011;13252;53.596;10.060;2022-09-09T14:58:05;12.83;;;6.93;;
1682;SDS011;13252;53.596;10.060;2022-09-09T15:00:32;7.20;;;4.43;;
1682;SDS011;13252;53.596;10.060;2022-09-09T15:03:00;9.00;;;5.13;;